»·PEaware :: AMX619 KLAX-KLAS

AMX619 :: KLAX-KLAS

FLIGHT INFORMATION

Flight Status: Arrived
Operator:
Aeromexico
More flights by this operator :: More flights under this callsign
Pilot: Guillermo C. (14369)
Aircraft: Unknown
(738)
More flights by this aircraft type
Origin: KLAX Los Angeles Intl
United States
Destination: KLAS McCarran Intl
United States
More flights between these airports :: More routes between these airports
Route: +LOOP8 DAG KEPEC3
File this flight plan on PilotEdge
Remarks:
Altitude:
(Current/Filed)
35,000ft
Speed:
(Current/Filed)
445kts
Departed: 26-Apr-17 12:43 PM
Arrived: 26-Apr-17 01:43 PM
Distance/Time
Traveled:
206nm/0:59
Distance/Time
To Go:
Arrived

Flight Plot

Page will automatically refresh every two minutes.


Map Options




Map Legend


Flown Route
Filed Route
Departure Airport
Arrival Airport
Navaid (VOR, NDB)
Fix

Horizontal Profiles

Position Reports

Time Latitude Longitude Heading Altitude Ground
Speed
26-Apr-17 12:20 33.940709 -118.400055 80 117ft 0kts
26-Apr-17 12:21 33.940709 -118.400055 80 117ft 0kts
26-Apr-17 12:22 33.940709 -118.400055 80 117ft 0kts
26-Apr-17 12:23 33.940709 -118.400055 80 117ft 0kts
26-Apr-17 12:24 33.940709 -118.400055 80 117ft 0kts
26-Apr-17 12:25 33.940709 -118.400055 80 117ft 0kts
26-Apr-17 12:26 33.940709 -118.400055 80 117ft 0kts
26-Apr-17 12:27 33.940709 -118.400055 80 117ft 0kts
26-Apr-17 12:28 33.940709 -118.400055 80 117ft 0kts
26-Apr-17 12:29 33.940709 -118.400055 80 117ft 0kts
26-Apr-17 12:30 33.940709 -118.400055 80 117ft 0kts
26-Apr-17 12:31 33.940709 -118.400055 80 117ft 0kts
26-Apr-17 12:32 33.940709 -118.400055 80 117ft 0kts
26-Apr-17 12:33 33.940709 -118.400055 80 117ft 0kts
26-Apr-17 12:34 33.940709 -118.400055 80 117ft 0kts
26-Apr-17 12:35 33.940675 -118.400273 79 117ft 3kts
26-Apr-17 12:36 33.940935 -118.400944 169 119ft 0kts
26-Apr-17 12:37 33.940935 -118.400944 169 119ft 0kts
26-Apr-17 12:38 33.940935 -118.400944 169 119ft 0kts
26-Apr-17 12:39 33.940935 -118.400944 169 119ft 0kts
26-Apr-17 12:40 33.939633 -118.399876 87 117ft 14kts
26-Apr-17 12:41 33.939234 -118.395439 82 110ft 12kts
26-Apr-17 12:42 33.939624 -118.391744 83 107ft 10kts
26-Apr-17 12:43 33.939970 -118.388300 84 104ft 0kts
26-Apr-17 12:44 33.939670 -118.387985 174 104ft 20kts
26-Apr-17 12:45 33.936595 -118.412895 265 736ft 157kts
26-Apr-17 12:46 33.924229 -118.473661 248 2309ft 245kts
26-Apr-17 12:47 33.898327 -118.550567 250 5649ft 255kts
26-Apr-17 12:48 33.871747 -118.630035 253 8669ft 267kts
26-Apr-17 12:49 33.845583 -118.709337 254 10705ft 301kts
26-Apr-17 12:50 33.784654 -118.781833 197 13319ft 352kts
26-Apr-17 12:51 33.692511 -118.748552 131 15010ft 370kts
26-Apr-17 12:52 33.661988 -118.638272 77 15008ft 347kts
26-Apr-17 12:53 33.703976 -118.546309 29 15003ft 313kts
26-Apr-17 12:54 33.777779 -118.506523 16 17064ft 314kts
26-Apr-17 12:55 33.852468 -118.470409 16 19168ft 326kts
26-Apr-17 12:56 33.913145 -118.440021 24 20724ft 341kts
26-Apr-17 12:57 33.958895 -118.382311 46 22084ft 366kts
26-Apr-17 12:58 33.992372 -118.326140 48 22947ft 372kts
26-Apr-17 12:59 34.041295 -118.240914 49 22975ft 376kts
26-Apr-17 13:00 34.090170 -118.154633 48 22973ft 375kts
26-Apr-17 13:01 34.129710 -118.084707 49 23699ft 381kts
26-Apr-17 13:02 34.183756 -117.988877 49 25332ft 391kts
26-Apr-17 13:03 34.238669 -117.891115 49 27145ft 390kts
26-Apr-17 13:04 34.296809 -117.787275 49 28841ft 389kts
26-Apr-17 13:05 34.356093 -117.681053 48 30327ft 388kts
26-Apr-17 13:06 34.414932 -117.575400 48 31626ft 387kts
26-Apr-17 13:07 34.472930 -117.470925 49 32738ft 386kts
26-Apr-17 13:08 34.530880 -117.366270 48 33727ft 385kts
26-Apr-17 13:09 34.583358 -117.271316 49 34496ft 384kts
26-Apr-17 13:10 34.639838 -117.168799 49 35018ft 380kts
26-Apr-17 13:11 34.698925 -117.061198 48 33236ft 384kts
26-Apr-17 13:12 34.757471 -116.954660 49 31479ft 390kts
26-Apr-17 13:13 34.817270 -116.845077 49 29715ft 395kts
26-Apr-17 13:14 34.876771 -116.735692 50 27982ft 399kts
26-Apr-17 13:15 34.937677 -116.623306 50 26418ft 403kts
26-Apr-17 13:16 35.007806 -116.521483 37 24953ft 395kts
26-Apr-17 13:17 35.082496 -116.428288 37 24004ft 394kts
26-Apr-17 13:18 35.147577 -116.346969 38 23237ft 401kts
26-Apr-17 13:19 35.222889 -116.252728 39 21291ft 399kts
26-Apr-17 13:20 35.298783 -116.157272 40 19362ft 403kts
26-Apr-17 13:21 35.376164 -116.059451 40 17408ft 406kts
26-Apr-17 13:22 35.453278 -115.961925 41 15425ft 392kts
26-Apr-17 13:23 35.521216 -115.875480 41 14114ft 348kts
26-Apr-17 13:24 35.586814 -115.792075 41 13074ft 343kts
26-Apr-17 13:25 35.652203 -115.708999 41 13065ft 345kts
26-Apr-17 13:26 35.710455 -115.635205 41 13015ft 331kts
26-Apr-17 13:27 35.769879 -115.581534 4 13131ft 294kts
26-Apr-17 13:28 35.849978 -115.571384 359 13109ft 291kts
26-Apr-17 13:29 35.929922 -115.565835 358 13093ft 291kts
26-Apr-17 13:30 35.983581 -115.508229 58 12168ft 319kts
26-Apr-17 13:31 36.018049 -115.412993 63 11018ft 283kts
26-Apr-17 13:32 36.026194 -115.326498 90 10056ft 290kts
26-Apr-17 13:33 36.020512 -115.235225 92 9075ft 274kts
26-Apr-17 13:34 36.014100 -115.143561 91 9065ft 280kts
26-Apr-17 13:35 36.008386 -115.053080 90 8150ft 241kts
26-Apr-17 13:36 36.004170 -114.984302 92 8055ft 256kts
26-Apr-17 13:37 35.998159 -114.884004 91 6718ft 248kts
26-Apr-17 13:38 36.015653 -114.816242 2 5196ft 208kts
26-Apr-17 13:39 36.041050 -114.854979 291 5062ft 196kts
26-Apr-17 13:40 36.063773 -114.925980 292 5054ft 197kts
26-Apr-17 13:41 36.073671 -114.975260 270 4419ft 179kts
26-Apr-17 13:42 36.073518 -115.034302 267 3629ft 160kts
26-Apr-17 13:43 36.073428 -115.074344 273 2972ft 171kts
26-Apr-17 13:44 36.073657 -115.136225 269 2076ft 116kts
26-Apr-17 13:45 36.073780 -115.147754 280 2112ft 14kts
26-Apr-17 13:46 36.074887 -115.150854 309 2122ft 0kts
26-Apr-17 13:47 36.074887 -115.150854 309 2122ft 0kts
26-Apr-17 13:48 36.075801 -115.151648 337 2123ft 19kts
26-Apr-17 13:49 36.078663 -115.150435 87 2113ft 20kts
26-Apr-17 13:50 36.078225 -115.141833 89 2086ft 26kts
26-Apr-17 13:51 36.080003 -115.137350 128 2067ft 0kts
26-Apr-17 13:52 36.080003 -115.137350 128 2067ft 0kts
26-Apr-17 13:53 36.080003 -115.137350 128 2067ft 0kts
26-Apr-17 13:54 36.080003 -115.137350 128 2067ft 0kts
26-Apr-17 13:55 36.080003 -115.137350 128 2067ft 0kts
26-Apr-17 13:56 36.080003 -115.137350 128 2067ft 0kts
26-Apr-17 13:57 36.080003 -115.137350 128 2067ft 0kts
26-Apr-17 13:58 36.080003 -115.137350 128 2067ft 0kts
26-Apr-17 13:59 36.080003 -115.137350 128 2067ft 0kts

Navigation Log

Ident Type
Flight plan parsing failed, navigation log unavailable